sensor_id;sensor_type;location;lat;lon;timestamp;temperature;humidity
39503;DHT22;26970;49.900;10.774;2022-11-15T00:00:58;7.20;99.90
39503;DHT22;26970;49.900;10.774;2022-11-15T00:03:27;7.20;99.90
39503;DHT22;26970;49.900;10.774;2022-11-15T00:05:53;7.10;99.90
39503;DHT22;26970;49.900;10.774;2022-11-15T00:08:18;7.10;99.90
39503;DHT22;26970;49.900;10.774;2022-11-15T00:10:54;7.10;99.90
39503;DHT22;26970;49.900;10.774;2022-11-15T00:13:23;7.00;99.90
39503;DHT22;26970;49.900;10.774;2022-11-15T00:15:49;6.90;99.90
39503;DHT22;26970;49.900;10.774;2022-11-15T00:18:15;6.90;99.90
39503;DHT22;26970;49.900;10.774;2022-11-15T00:20:41;6.90;99.90
39503;DHT22;26970;49.900;10.774;2022-11-15T00:23:08;6.80;99.90
39503;DHT22;26970;49.900;10.774;2022-11-15T00:25:33;6.80;99.90
39503;DHT22;26970;49.900;10.774;2022-11-15T00:28:00;6.80;99.90
39503;DHT22;26970;49.900;10.774;2022-11-15T00:30:26;6.70;99.90
39503;DHT22;26970;49.900;10.774;2022-11-15T00:32:54;6.60;99.90
39503;DHT22;26970;49.900;10.774;2022-11-15T00:35:20;6.60;99.90
39503;DHT22;26970;49.900;10.774;2022-11-15T00:37:46;6.70;99.90
39503;DHT22;26970;49.900;10.774;2022-11-15T00:40:12;6.70;99.90
39503;DHT22;26970;49.900;10.774;2022-11-15T00:42:38;6.60;99.90
39503;DHT22;26970;49.900;10.774;2022-11-15T00:45:04;6.60;99.90
39503;DHT22;26970;49.900;10.774;2022-11-15T00:47:30;6.70;99.90
39503;DHT22;26970;49.900;10.774;2022-11-15T00:49:56;6.70;99.90
39503;DHT22;26970;49.900;10.774;2022-11-15T00:52:21;6.80;99.90
39503;DHT22;26970;49.900;10.774;2022-11-15T00:54:47;6.80;99.90
39503;DHT22;26970;49.900;10.774;2022-11-15T00:57:12;6.80;99.90
39503;DHT22;26970;49.900;10.774;2022-11-15T00:59:38;6.90;99.90
39503;DHT22;26970;49.900;10.774;2022-11-15T01:02:03;6.90;99.90
39503;DHT22;26970;49.900;10.774;2022-11-15T01:04:29;7.00;99.90
39503;DHT22;26970;49.900;10.774;2022-11-15T01:06:54;7.00;99.90
39503;DHT22;26970;49.900;10.774;2022-11-15T01:09:20;7.10;99.90
39503;DHT22;26970;49.900;10.774;2022-11-15T01:11:45;7.10;99.90
39503;DHT22;26970;49.900;10.774;2022-11-15T01:14:11;7.20;99.90
39503;DHT22;26970;49.900;10.774;2022-11-15T01:16:37;7.20;99.90
39503;DHT22;26970;49.900;10.774;2022-11-15T01:19:02;7.20;99.90
39503;DHT22;26970;49.900;10.774;2022-11-15T01:21:28;7.20;99.90
39503;DHT22;26970;49.900;10.774;2022-11-15T01:23:55;7.20;99.90
39503;DHT22;26970;49.900;10.774;2022-11-15T01:26:22;7.30;99.90
39503;DHT22;26970;49.900;10.774;2022-11-15T01:28:47;7.30;99.90
39503;DHT22;26970;49.900;10.774;2022-11-15T01:31:16;7.30;99.90
39503;DHT22;26970;49.900;10.774;2022-11-15T01:33:43;7.40;99.90
39503;DHT22;26970;49.900;10.774;2022-11-15T01:36:13;7.40;99.90
39503;DHT22;26970;49.900;10.774;2022-11-15T01:38:38;7.50;99.90
39503;DHT22;26970;49.900;10.774;2022-11-15T01:41:04;7.50;99.90
39503;DHT22;26970;49.900;10.774;2022-11-15T01:43:35;7.50;99.90
39503;DHT22;26970;49.900;10.774;2022-11-15T01:48:47;7.60;99.90
39503;DHT22;26970;49.900;10.774;2022-11-15T01:51:16;7.60;99.90
39503;DHT22;26970;49.900;10.774;2022-11-15T01:53:46;7.60;99.90
39503;DHT22;26970;49.900;10.774;2022-11-15T01:56:18;7.60;99.90
39503;DHT22;26970;49.900;10.774;2022-11-15T01:58:45;7.70;99.90
39503;DHT22;26970;49.900;10.774;2022-11-15T02:01:12;7.70;99.90
39503;DHT22;26970;49.900;10.774;2022-11-15T02:03:52;7.60;99.90
39503;DHT22;26970;49.900;10.774;2022-11-15T02:06:20;7.60;99.90
39503;DHT22;26970;49.900;10.774;2022-11-15T02:08:46;7.60;99.90
39503;DHT22;26970;49.900;10.774;2022-11-15T02:11:12;7.60;99.90
39503;DHT22;26970;49.900;10.774;2022-11-15T02:13:38;7.60;99.90
39503;DHT22;26970;49.900;10.774;2022-11-15T02:18:52;7.60;99.90
39503;DHT22;26970;49.900;10.774;2022-11-15T02:21:28;7.60;99.90
39503;DHT22;26970;49.900;10.774;2022-11-15T02:24:17;7.60;99.90
39503;DHT22;26970;49.900;10.774;2022-11-15T02:32:54;7.60;99.90
39503;DHT22;26970;49.900;10.774;2022-11-15T02:38:04;7.60;99.90
39503;DHT22;26970;49.900;10.774;2022-11-15T02:40:43;7.60;99.90
39503;DHT22;26970;49.900;10.774;2022-11-15T02:43:12;7.60;99.90
39503;DHT22;26970;49.900;10.774;2022-11-15T02:46:13;7.60;99.90
39503;DHT22;26970;49.900;10.774;2022-11-15T02:48:40;7.70;99.90
39503;DHT22;26970;49.900;10.774;2022-11-15T02:51:06;7.80;99.90
39503;DHT22;26970;49.900;10.774;2022-11-15T02:53:32;7.80;99.90
39503;DHT22;26970;49.900;10.774;2022-11-15T02:55:58;7.80;99.90
39503;DHT22;26970;49.900;10.774;2022-11-15T03:03:41;7.80;99.90
39503;DHT22;26970;49.900;10.774;2022-11-15T03:09:10;7.80;99.90
39503;DHT22;26970;49.900;10.774;2022-11-15T03:11:44;7.80;99.90
39503;DHT22;26970;49.900;10.774;2022-11-15T03:14:21;7.70;99.90
39503;DHT22;26970;49.900;10.774;2022-11-15T03:16:59;7.70;99.90
39503;DHT22;26970;49.900;10.774;2022-11-15T03:19:54;7.70;99.90
39503;DHT22;26970;49.900;10.774;2022-11-15T03:22:21;7.70;99.90
39503;DHT22;26970;49.900;10.774;2022-11-15T03:24:52;7.70;99.90
39503;DHT22;26970;49.900;10.774;2022-11-15T03:27:22;7.90;99.90
39503;DHT22;26970;49.900;10.774;2022-11-15T03:29:56;7.80;99.90
39503;DHT22;26970;49.900;10.774;2022-11-15T03:32:29;7.90;99.90
39503;DHT22;26970;49.900;10.774;2022-11-15T03:37:22;8.00;99.90
39503;DHT22;26970;49.900;10.774;2022-11-15T03:39:51;8.00;99.90
39503;DHT22;26970;49.900;10.774;2022-11-15T03:45:14;8.00;99.90
39503;DHT22;26970;49.900;10.774;2022-11-15T03:47:57;8.00;99.90
39503;DHT22;26970;49.900;10.774;2022-11-15T03:50:23;8.00;99.90
39503;DHT22;26970;49.900;10.774;2022-11-15T03:52:50;8.00;99.90
39503;DHT22;26970;49.900;10.774;2022-11-15T03:55:18;7.90;99.90
39503;DHT22;26970;49.900;10.774;2022-11-15T03:57:45;7.80;99.90
39503;DHT22;26970;49.900;10.774;2022-11-15T04:00:11;7.80;99.90
39503;DHT22;26970;49.900;10.774;2022-11-15T04:02:37;7.80;99.90
39503;DHT22;26970;49.900;10.774;2022-11-15T04:05:03;7.80;99.90
39503;DHT22;26970;49.900;10.774;2022-11-15T04:07:29;7.70;99.90
39503;DHT22;26970;49.900;10.774;2022-11-15T04:09:54;7.70;99.90
39503;DHT22;26970;49.900;10.774;2022-11-15T04:12:30;7.60;99.90
39503;DHT22;26970;49.900;10.774;2022-11-15T04:15:01;7.60;99.90
39503;DHT22;26970;49.900;10.774;2022-11-15T04:17:42;7.50;99.90
39503;DHT22;26970;49.900;10.774;2022-11-15T04:20:14;7.40;99.90
39503;DHT22;26970;49.900;10.774;2022-11-15T04:23:01;7.40;99.90
39503;DHT22;26970;49.900;10.774;2022-11-15T04:25:46;7.40;99.90
39503;DHT22;26970;49.900;10.774;2022-11-15T04:28:12;7.30;99.90
39503;DHT22;26970;49.900;10.774;2022-11-15T04:30:38;7.20;99.90
39503;DHT22;26970;49.900;10.774;2022-11-15T04:33:04;7.10;99.90
39503;DHT22;26970;49.900;10.774;2022-11-15T04:35:30;7.10;99.90
39503;DHT22;26970;49.900;10.774;2022-11-15T04:37:56;7.00;99.90
39503;DHT22;26970;49.900;10.774;2022-11-15T04:40:22;6.90;99.90
39503;DHT22;26970;49.900;10.774;2022-11-15T04:42:48;6.90;99.90
39503;DHT22;26970;49.900;10.774;2022-11-15T04:45:13;6.80;99.90
39503;DHT22;26970;49.900;10.774;2022-11-15T04:47:39;6.80;99.90
39503;DHT22;26970;49.900;10.774;2022-11-15T04:50:05;6.80;99.90
39503;DHT22;26970;49.900;10.774;2022-11-15T04:52:30;6.70;99.90
39503;DHT22;26970;49.900;10.774;2022-11-15T04:54:56;6.70;99.90
39503;DHT22;26970;49.900;10.774;2022-11-15T04:57:21;6.70;99.90
39503;DHT22;26970;49.900;10.774;2022-11-15T04:59:47;6.80;99.90
39503;DHT22;26970;49.900;10.774;2022-11-15T05:02:12;6.80;99.90
39503;DHT22;26970;49.900;10.774;2022-11-15T05:04:38;6.90;99.90
39503;DHT22;26970;49.900;10.774;2022-11-15T05:07:04;6.90;99.90
39503;DHT22;26970;49.900;10.774;2022-11-15T05:09:30;6.90;99.90
39503;DHT22;26970;49.900;10.774;2022-11-15T05:11:55;6.90;99.90
39503;DHT22;26970;49.900;10.774;2022-11-15T05:14:21;6.90;99.90
39503;DHT22;26970;49.900;10.774;2022-11-15T05:16:46;6.90;99.90
39503;DHT22;26970;49.900;10.774;2022-11-15T05:19:12;7.00;99.90
39503;DHT22;26970;49.900;10.774;2022-11-15T05:21:38;6.90;99.90
39503;DHT22;26970;49.900;10.774;2022-11-15T05:24:04;6.90;99.90
39503;DHT22;26970;49.900;10.774;2022-11-15T05:26:29;6.80;99.90
39503;DHT22;26970;49.900;10.774;2022-11-15T05:28:56;6.90;99.90
39503;DHT22;26970;49.900;10.774;2022-11-15T05:31:23;6.90;99.90
39503;DHT22;26970;49.900;10.774;2022-11-15T05:33:50;6.90;99.90
39503;DHT22;26970;49.900;10.774;2022-11-15T05:36:36;6.90;99.90
39503;DHT22;26970;49.900;10.774;2022-11-15T05:39:04;6.80;99.90
39503;DHT22;26970;49.900;10.774;2022-11-15T05:41:34;6.90;99.90
39503;DHT22;26970;49.900;10.774;2022-11-15T05:44:02;6.90;99.90
39503;DHT22;26970;49.900;10.774;2022-11-15T05:46:28;6.90;99.90
39503;DHT22;26970;49.900;10.774;2022-11-15T05:48:55;6.90;99.90
39503;DHT22;26970;49.900;10.774;2022-11-15T05:51:22;6.90;99.90
39503;DHT22;26970;49.900;10.774;2022-11-15T05:53:48;7.00;99.90
39503;DHT22;26970;49.900;10.774;2022-11-15T05:56:15;7.00;99.90
39503;DHT22;26970;49.900;10.774;2022-11-15T05:58:41;6.90;99.90
39503;DHT22;26970;49.900;10.774;2022-11-15T06:01:07;6.90;99.90
39503;DHT22;26970;49.900;10.774;2022-11-15T06:03:33;7.00;99.90
39503;DHT22;26970;49.900;10.774;2022-11-15T06:05:58;7.00;99.90
39503;DHT22;26970;49.900;10.774;2022-11-15T06:08:24;6.90;99.90
39503;DHT22;26970;49.900;10.774;2022-11-15T06:10:49;6.90;99.90
39503;DHT22;26970;49.900;10.774;2022-11-15T06:13:15;6.80;99.90
39503;DHT22;26970;49.900;10.774;2022-11-15T06:15:40;6.60;99.90
39503;DHT22;26970;49.900;10.774;2022-11-15T06:18:06;6.50;99.90
39503;DHT22;26970;49.900;10.774;2022-11-15T06:20:31;6.30;99.90
39503;DHT22;26970;49.900;10.774;2022-11-15T06:23:02;6.10;99.90
39503;DHT22;26970;49.900;10.774;2022-11-15T06:25:29;6.00;99.90
39503;DHT22;26970;49.900;10.774;2022-11-15T06:27:56;5.90;99.90
39503;DHT22;26970;49.900;10.774;2022-11-15T06:30:23;5.80;99.90
39503;DHT22;26970;49.900;10.774;2022-11-15T06:32:49;5.70;99.90
39503;DHT22;26970;49.900;10.774;2022-11-15T06:35:15;5.70;99.90
39503;DHT22;26970;49.900;10.774;2022-11-15T06:37:41;5.70;99.90
39503;DHT22;26970;49.900;10.774;2022-11-15T06:40:09;5.80;99.90
39503;DHT22;26970;49.900;10.774;2022-11-15T06:42:34;6.10;99.90
39503;DHT22;26970;49.900;10.774;2022-11-15T06:45:00;6.30;99.90
39503;DHT22;26970;49.900;10.774;2022-11-15T06:47:26;6.60;99.90
39503;DHT22;26970;49.900;10.774;2022-11-15T06:49:51;6.50;99.90
39503;DHT22;26970;49.900;10.774;2022-11-15T06:52:17;6.60;99.90
39503;DHT22;26970;49.900;10.774;2022-11-15T06:54:45;6.70;99.90
39503;DHT22;26970;49.900;10.774;2022-11-15T06:57:10;6.70;99.90
39503;DHT22;26970;49.900;10.774;2022-11-15T06:59:36;6.70;99.90
39503;DHT22;26970;49.900;10.774;2022-11-15T07:02:02;6.70;99.90
39503;DHT22;26970;49.900;10.774;2022-11-15T07:04:28;6.60;99.90
39503;DHT22;26970;49.900;10.774;2022-11-15T07:06:53;6.60;99.90
39503;DHT22;26970;49.900;10.774;2022-11-15T07:09:19;6.50;99.90
39503;DHT22;26970;49.900;10.774;2022-11-15T07:11:44;6.40;99.90
39503;DHT22;26970;49.900;10.774;2022-11-15T07:14:11;6.40;99.90
39503;DHT22;26970;49.900;10.774;2022-11-15T07:16:37;6.30;99.90
39503;DHT22;26970;49.900;10.774;2022-11-15T07:19:03;6.30;99.90
39503;DHT22;26970;49.900;10.774;2022-11-15T07:21:28;6.40;99.90
39503;DHT22;26970;49.900;10.774;2022-11-15T07:23:54;6.60;99.90
39503;DHT22;26970;49.900;10.774;2022-11-15T07:26:19;6.50;99.90
39503;DHT22;26970;49.900;10.774;2022-11-15T07:28:45;6.60;99.90
39503;DHT22;26970;49.900;10.774;2022-11-15T07:31:11;6.70;99.90
39503;DHT22;26970;49.900;10.774;2022-11-15T07:33:36;6.70;99.90
39503;DHT22;26970;49.900;10.774;2022-11-15T07:36:03;6.70;99.90
39503;DHT22;26970;49.900;10.774;2022-11-15T07:38:29;6.70;99.90
39503;DHT22;26970;49.900;10.774;2022-11-15T07:40:56;6.80;99.90
39503;DHT22;26970;49.900;10.774;2022-11-15T07:43:22;6.80;99.90
39503;DHT22;26970;49.900;10.774;2022-11-15T07:45:48;6.80;99.90
39503;DHT22;26970;49.900;10.774;2022-11-15T07:48:13;6.80;99.90
39503;DHT22;26970;49.900;10.774;2022-11-15T07:50:42;7.00;99.90
39503;DHT22;26970;49.900;10.774;2022-11-15T07:53:09;7.00;99.90
39503;DHT22;26970;49.900;10.774;2022-11-15T07:55:35;7.10;99.90
39503;DHT22;26970;49.900;10.774;2022-11-15T07:58:02;7.30;99.90
39503;DHT22;26970;49.900;10.774;2022-11-15T08:00:28;7.40;99.90
39503;DHT22;26970;49.900;10.774;2022-11-15T08:03:02;7.50;99.90
39503;DHT22;26970;49.900;10.774;2022-11-15T08:05:27;7.70;99.90
39503;DHT22;26970;49.900;10.774;2022-11-15T08:07:55;7.70;99.90
39503;DHT22;26970;49.900;10.774;2022-11-15T08:10:21;7.80;99.90
39503;DHT22;26970;49.900;10.774;2022-11-15T08:12:46;7.90;99.90
39503;DHT22;26970;49.900;10.774;2022-11-15T08:15:12;7.90;99.90
39503;DHT22;26970;49.900;10.774;2022-11-15T08:17:37;8.00;99.90
39503;DHT22;26970;49.900;10.774;2022-11-15T08:20:03;8.10;99.90
39503;DHT22;26970;49.900;10.774;2022-11-15T08:22:30;8.20;99.90
39503;DHT22;26970;49.900;10.774;2022-11-15T08:24:55;8.30;99.90
39503;DHT22;26970;49.900;10.774;2022-11-15T08:27:21;8.40;99.90
39503;DHT22;26970;49.900;10.774;2022-11-15T08:29:48;8.50;99.90
39503;DHT22;26970;49.900;10.774;2022-11-15T08:32:14;8.60;99.90
39503;DHT22;26970;49.900;10.774;2022-11-15T08:34:39;8.60;99.90
39503;DHT22;26970;49.900;10.774;2022-11-15T08:37:05;8.70;99.90
39503;DHT22;26970;49.900;10.774;2022-11-15T08:39:31;8.80;99.90
39503;DHT22;26970;49.900;10.774;2022-11-15T08:41:56;8.90;99.90
39503;DHT22;26970;49.900;10.774;2022-11-15T08:44:22;8.90;99.90
39503;DHT22;26970;49.900;10.774;2022-11-15T08:46:49;9.00;99.90
39503;DHT22;26970;49.900;10.774;2022-11-15T08:49:15;8.90;99.90
39503;DHT22;26970;49.900;10.774;2022-11-15T08:51:40;8.90;99.90
39503;DHT22;26970;49.900;10.774;2022-11-15T08:54:06;9.00;99.90
39503;DHT22;26970;49.900;10.774;2022-11-15T08:56:31;9.00;99.90
39503;DHT22;26970;49.900;10.774;2022-11-15T08:58:57;9.00;99.90
39503;DHT22;26970;49.900;10.774;2022-11-15T09:01:23;9.00;99.90
39503;DHT22;26970;49.900;10.774;2022-11-15T09:03:48;9.10;99.90
39503;DHT22;26970;49.900;10.774;2022-11-15T09:06:14;9.10;99.90
39503;DHT22;26970;49.900;10.774;2022-11-15T09:08:40;9.10;99.90
39503;DHT22;26970;49.900;10.774;2022-11-15T09:11:07;9.20;99.90
39503;DHT22;26970;49.900;10.774;2022-11-15T09:13:34;9.20;99.90
39503;DHT22;26970;49.900;10.774;2022-11-15T09:16:01;9.20;99.90
39503;DHT22;26970;49.900;10.774;2022-11-15T09:18:27;9.30;99.90
39503;DHT22;26970;49.900;10.774;2022-11-15T09:20:59;9.30;99.90
39503;DHT22;26970;49.900;10.774;2022-11-15T09:23:26;9.40;99.90
39503;DHT22;26970;49.900;10.774;2022-11-15T09:25:52;9.40;99.90
39503;DHT22;26970;49.900;10.774;2022-11-15T09:28:22;9.40;99.90
39503;DHT22;26970;49.900;10.774;2022-11-15T09:31:03;9.50;99.90
39503;DHT22;26970;49.900;10.774;2022-11-15T09:33:29;9.70;99.90
39503;DHT22;26970;49.900;10.774;2022-11-15T09:36:03;9.80;99.90
39503;DHT22;26970;49.900;10.774;2022-11-15T09:38:28;9.90;99.90
39503;DHT22;26970;49.900;10.774;2022-11-15T09:44:13;10.00;99.90
39503;DHT22;26970;49.900;10.774;2022-11-15T09:49:16;10.10;99.90
39503;DHT22;26970;49.900;10.774;2022-11-15T09:51:45;10.20;99.90
39503;DHT22;26970;49.900;10.774;2022-11-15T09:56:47;10.30;99.90
39503;DHT22;26970;49.900;10.774;2022-11-15T10:04:54;10.50;99.90
39503;DHT22;26970;49.900;10.774;2022-11-15T10:08:23;10.50;99.90
39503;DHT22;26970;49.900;10.774;2022-11-15T10:10:38;10.60;99.90
39503;DHT22;26970;49.900;10.774;2022-11-15T10:13:04;10.60;99.90
39503;DHT22;26970;49.900;10.774;2022-11-15T10:15:30;10.60;99.90
39503;DHT22;26970;49.900;10.774;2022-11-15T10:18:16;10.60;99.90
39503;DHT22;26970;49.900;10.774;2022-11-15T10:20:55;10.70;99.90
39503;DHT22;26970;49.900;10.774;2022-11-15T10:23:22;10.80;99.90
39503;DHT22;26970;49.900;10.774;2022-11-15T10:25:52;10.90;99.90
39503;DHT22;26970;49.900;10.774;2022-11-15T10:28:31;10.90;99.90
39503;DHT22;26970;49.900;10.774;2022-11-15T10:30:58;11.00;99.90
39503;DHT22;26970;49.900;10.774;2022-11-15T10:33:30;11.10;99.90
39503;DHT22;26970;49.900;10.774;2022-11-15T10:36:19;11.20;99.90
39503;DHT22;26970;49.900;10.774;2022-11-15T10:41:17;11.40;99.90
39503;DHT22;26970;49.900;10.774;2022-11-15T10:43:42;11.50;99.90
39503;DHT22;26970;49.900;10.774;2022-11-15T10:46:22;11.50;99.90
39503;DHT22;26970;49.900;10.774;2022-11-15T10:48:48;11.60;99.90
39503;DHT22;26970;49.900;10.774;2022-11-15T10:51:26;11.50;99.90
39503;DHT22;26970;49.900;10.774;2022-11-15T10:53:59;11.50;99.90
39503;DHT22;26970;49.900;10.774;2022-11-15T10:56:26;11.60;99.90
39503;DHT22;26970;49.900;10.774;2022-11-15T10:58:55;11.60;99.90
39503;DHT22;26970;49.900;10.774;2022-11-15T11:01:26;11.60;99.90
39503;DHT22;26970;49.900;10.774;2022-11-15T11:06:28;11.60;99.90
39503;DHT22;26970;49.900;10.774;2022-11-15T11:09:00;11.80;99.90
39503;DHT22;26970;49.900;10.774;2022-11-15T11:11:45;11.70;99.90
39503;DHT22;26970;49.900;10.774;2022-11-15T11:14:24;11.80;99.90
39503;DHT22;26970;49.900;10.774;2022-11-15T11:22:47;12.00;99.90
39503;DHT22;26970;49.900;10.774;2022-11-15T11:37:03;12.30;99.90
39503;DHT22;26970;49.900;10.774;2022-11-15T11:42:40;12.30;99.90
39503;DHT22;26970;49.900;10.774;2022-11-15T11:47:40;12.40;99.90
39503;DHT22;26970;49.900;10.774;2022-11-15T11:50:21;12.30;99.90
39503;DHT22;26970;49.900;10.774;2022-11-15T11:55:33;12.50;99.90
39503;DHT22;26970;49.900;10.774;2022-11-15T12:06:42;12.70;99.90
39503;DHT22;26970;49.900;10.774;2022-11-15T12:17:27;12.80;99.90
39503;DHT22;26970;49.900;10.774;2022-11-15T12:19:58;12.80;99.90
39503;DHT22;26970;49.900;10.774;2022-11-15T12:22:38;12.80;99.90
39503;DHT22;26970;49.900;10.774;2022-11-15T12:25:20;12.80;99.90
39503;DHT22;26970;49.900;10.774;2022-11-15T12:27:53;12.80;99.90
39503;DHT22;26970;49.900;10.774;2022-11-15T12:30:21;12.80;99.90
39503;DHT22;26970;49.900;10.774;2022-11-15T12:32:54;12.80;99.90
39503;DHT22;26970;49.900;10.774;2022-11-15T12:35:40;12.80;99.90
39503;DHT22;26970;49.900;10.774;2022-11-15T12:38:10;12.80;99.90
39503;DHT22;26970;49.900;10.774;2022-11-15T12:40:38;12.70;99.90
39503;DHT22;26970;49.900;10.774;2022-11-15T12:45:41;12.70;99.90
39503;DHT22;26970;49.900;10.774;2022-11-15T13:04:13;12.60;99.90
39503;DHT22;26970;49.900;10.774;2022-11-15T13:06:43;12.60;99.90
39503;DHT22;26970;49.900;10.774;2022-11-15T13:12:00;12.60;99.90
39503;DHT22;26970;49.900;10.774;2022-11-15T13:14:44;12.60;99.90
39503;DHT22;26970;49.900;10.774;2022-11-15T13:19:46;12.60;99.90
39503;DHT22;26970;49.900;10.774;2022-11-15T13:22:12;12.60;99.90
39503;DHT22;26970;49.900;10.774;2022-11-15T13:24:57;12.60;99.90
39503;DHT22;26970;49.900;10.774;2022-11-15T13:27:24;12.50;99.90
39503;DHT22;26970;49.900;10.774;2022-11-15T13:29:50;12.50;99.90
39503;DHT22;26970;49.900;10.774;2022-11-15T13:32:16;12.50;99.90
39503;DHT22;26970;49.900;10.774;2022-11-15T13:34:49;12.50;99.90
39503;DHT22;26970;49.900;10.774;2022-11-15T13:39:50;12.60;99.90
39503;DHT22;26970;49.900;10.774;2022-11-15T13:42:17;12.60;99.90
39503;DHT22;26970;49.900;10.774;2022-11-15T13:44:58;12.60;99.90
39503;DHT22;26970;49.900;10.774;2022-11-15T13:47:26;12.70;99.90
39503;DHT22;26970;49.900;10.774;2022-11-15T13:49:58;12.60;99.90
39503;DHT22;26970;49.900;10.774;2022-11-15T13:52:30;12.80;99.90
39503;DHT22;26970;49.900;10.774;2022-11-15T13:55:03;12.80;99.90
39503;DHT22;26970;49.900;10.774;2022-11-15T13:57:41;12.80;99.90
39503;DHT22;26970;49.900;10.774;2022-11-15T14:00:38;12.80;99.90
39503;DHT22;26970;49.900;10.774;2022-11-15T14:03:19;12.70;99.90
39503;DHT22;26970;49.900;10.774;2022-11-15T14:06:13;12.70;99.90
39503;DHT22;26970;49.900;10.774;2022-11-15T14:08:41;12.50;99.90
39503;DHT22;26970;49.900;10.774;2022-11-15T14:11:17;12.40;99.90
39503;DHT22;26970;49.900;10.774;2022-11-15T14:16:38;12.20;99.90
39503;DHT22;26970;49.900;10.774;2022-11-15T14:19:05;12.10;99.90
39503;DHT22;26970;49.900;10.774;2022-11-15T14:21:31;12.10;99.90
39503;DHT22;26970;49.900;10.774;2022-11-15T14:24:17;12.10;99.90
39503;DHT22;26970;49.900;10.774;2022-11-15T14:26:44;12.10;99.90
39503;DHT22;26970;49.900;10.774;2022-11-15T14:31:48;12.00;99.90
39503;DHT22;26970;49.900;10.774;2022-11-15T14:34:14;11.90;99.90
39503;DHT22;26970;49.900;10.774;2022-11-15T14:36:40;11.90;99.90
39503;DHT22;26970;49.900;10.774;2022-11-15T14:39:05;11.90;99.90
39503;DHT22;26970;49.900;10.774;2022-11-15T14:41:35;12.00;99.90
39503;DHT22;26970;49.900;10.774;2022-11-15T14:44:03;12.00;99.90
39503;DHT22;26970;49.900;10.774;2022-11-15T14:46:29;12.00;99.90
39503;DHT22;26970;49.900;10.774;2022-11-15T14:48:55;12.00;99.90
39503;DHT22;26970;49.900;10.774;2022-11-15T14:51:20;11.90;99.90
39503;DHT22;26970;49.900;10.774;2022-11-15T14:53:46;11.90;99.90
39503;DHT22;26970;49.900;10.774;2022-11-15T14:56:12;11.90;99.90
39503;DHT22;26970;49.900;10.774;2022-11-15T14:58:38;12.00;99.90
39503;DHT22;26970;49.900;10.774;2022-11-15T15:01:25;11.90;99.90
39503;DHT22;26970;49.900;10.774;2022-11-15T15:03:51;11.90;99.90
39503;DHT22;26970;49.900;10.774;2022-11-15T15:06:19;11.90;99.90
39503;DHT22;26970;49.900;10.774;2022-11-15T15:08:45;11.90;99.90
39503;DHT22;26970;49.900;10.774;2022-11-15T15:11:16;11.90;99.90
39503;DHT22;26970;49.900;10.774;2022-11-15T15:13:44;11.90;99.90
39503;DHT22;26970;49.900;10.774;2022-11-15T15:16:09;12.00;99.90
39503;DHT22;26970;49.900;10.774;2022-11-15T15:18:35;11.80;99.90
39503;DHT22;26970;49.900;10.774;2022-11-15T15:21:00;11.80;99.90
39503;DHT22;26970;49.900;10.774;2022-11-15T15:23:32;11.80;99.90
39503;DHT22;26970;49.900;10.774;2022-11-15T15:25:58;11.70;99.90
39503;DHT22;26970;49.900;10.774;2022-11-15T15:28:23;11.60;99.90
39503;DHT22;26970;49.900;10.774;2022-11-15T15:30:49;11.70;99.90
39503;DHT22;26970;49.900;10.774;2022-11-15T15:33:15;11.70;99.90
39503;DHT22;26970;49.900;10.774;2022-11-15T15:35:41;11.60;99.90
39503;DHT22;26970;49.900;10.774;2022-11-15T15:38:11;11.50;99.90
39503;DHT22;26970;49.900;10.774;2022-11-15T15:40:37;11.30;99.90
39503;DHT22;26970;49.900;10.774;2022-11-15T15:43:03;11.20;99.90
39503;DHT22;26970;49.900;10.774;2022-11-15T15:45:28;11.00;99.90
39503;DHT22;26970;49.900;10.774;2022-11-15T15:47:55;10.90;99.90
39503;DHT22;26970;49.900;10.774;2022-11-15T15:50:26;10.90;99.90
39503;DHT22;26970;49.900;10.774;2022-11-15T15:52:54;10.80;99.90
39503;DHT22;26970;49.900;10.774;2022-11-15T15:55:21;10.70;99.90
39503;DHT22;26970;49.900;10.774;2022-11-15T15:57:47;10.60;99.90
39503;DHT22;26970;49.900;10.774;2022-11-15T16:00:13;10.70;99.90
39503;DHT22;26970;49.900;10.774;2022-11-15T16:02:40;10.60;99.90
39503;DHT22;26970;49.900;10.774;2022-11-15T16:05:06;10.60;99.90
39503;DHT22;26970;49.900;10.774;2022-11-15T16:07:32;10.70;99.90
39503;DHT22;26970;49.900;10.774;2022-11-15T16:09:58;10.60;99.90
39503;DHT22;26970;49.900;10.774;2022-11-15T16:12:31;10.80;99.90
39503;DHT22;26970;49.900;10.774;2022-11-15T16:14:57;10.80;99.90
39503;DHT22;26970;49.900;10.774;2022-11-15T16:17:25;10.80;99.90
39503;DHT22;26970;49.900;10.774;2022-11-15T16:19:54;10.90;99.90
39503;DHT22;26970;49.900;10.774;2022-11-15T16:22:20;11.00;99.90
39503;DHT22;26970;49.900;10.774;2022-11-15T16:24:45;11.00;99.90
39503;DHT22;26970;49.900;10.774;2022-11-15T16:27:18;11.10;99.90
39503;DHT22;26970;49.900;10.774;2022-11-15T16:29:45;11.00;99.90
39503;DHT22;26970;49.900;10.774;2022-11-15T16:32:11;11.10;99.90
39503;DHT22;26970;49.900;10.774;2022-11-15T16:34:37;11.30;99.90
39503;DHT22;26970;49.900;10.774;2022-11-15T16:37:03;11.20;99.90
39503;DHT22;26970;49.900;10.774;2022-11-15T16:39:29;11.30;99.90
39503;DHT22;26970;49.900;10.774;2022-11-15T16:41:56;11.20;99.90
39503;DHT22;26970;49.900;10.774;2022-11-15T16:44:22;11.20;99.90
39503;DHT22;26970;49.900;10.774;2022-11-15T16:46:49;11.30;99.90
39503;DHT22;26970;49.900;10.774;2022-11-15T16:49:17;11.30;99.90
39503;DHT22;26970;49.900;10.774;2022-11-15T16:51:48;11.30;99.90
39503;DHT22;26970;49.900;10.774;2022-11-15T16:54:14;11.30;99.90
39503;DHT22;26970;49.900;10.774;2022-11-15T16:56:41;11.30;99.90
39503;DHT22;26970;49.900;10.774;2022-11-15T16:59:08;11.30;99.90
39503;DHT22;26970;49.900;10.774;2022-11-15T17:01:37;11.30;99.90
39503;DHT22;26970;49.900;10.774;2022-11-15T17:04:18;11.30;99.90
39503;DHT22;26970;49.900;10.774;2022-11-15T17:06:46;11.30;99.90
39503;DHT22;26970;49.900;10.774;2022-11-15T17:09:21;11.30;99.90
39503;DHT22;26970;49.900;10.774;2022-11-15T17:11:51;11.30;99.90
39503;DHT22;26970;49.900;10.774;2022-11-15T17:14:17;11.20;99.90
39503;DHT22;26970;49.900;10.774;2022-11-15T17:16:42;11.30;99.90
39503;DHT22;26970;49.900;10.774;2022-11-15T17:19:20;11.20;99.90
39503;DHT22;26970;49.900;10.774;2022-11-15T17:21:46;11.30;99.90
39503;DHT22;26970;49.900;10.774;2022-11-15T17:24:14;11.10;99.90
39503;DHT22;26970;49.900;10.774;2022-11-15T17:26:39;11.10;99.90
39503;DHT22;26970;49.900;10.774;2022-11-15T17:29:07;11.10;99.90
39503;DHT22;26970;49.900;10.774;2022-11-15T17:31:34;11.20;99.90
39503;DHT22;26970;49.900;10.774;2022-11-15T17:34:01;11.20;99.90
39503;DHT22;26970;49.900;10.774;2022-11-15T17:36:27;11.20;99.90